createdAt,value
2023-05-03T00:01:33.367Z,38.56
2023-05-03T00:03:59.961Z,38.31
2023-05-03T00:06:26.827Z,38.23
2023-05-03T00:08:53.481Z,38.40
2023-05-03T00:11:21.086Z,38.51
2023-05-03T00:13:47.727Z,38.47
2023-05-03T00:16:14.432Z,38.58
2023-05-03T00:18:41.014Z,38.23
2023-05-03T00:21:07.549Z,38.60
2023-05-03T00:23:34.350Z,38.28
2023-05-03T00:26:00.820Z,38.69
2023-05-03T00:28:27.378Z,38.33
2023-05-03T00:30:54.041Z,38.32
2023-05-03T00:33:20.787Z,38.50
2023-05-03T00:35:47.274Z,38.35
2023-05-03T00:38:15.432Z,38.32
2023-05-03T00:40:42.064Z,38.01
2023-05-03T00:43:11.481Z,38.38
2023-05-03T00:45:38.243Z,38.42
2023-05-03T00:48:04.917Z,38.44
2023-05-03T00:50:31.640Z,38.48
2023-05-03T00:52:58.459Z,38.58
2023-05-03T00:55:27.226Z,38.48
2023-05-03T00:57:53.678Z,38.82
2023-05-03T01:00:20.413Z,38.15
2023-05-03T01:02:47.039Z,38.74
2023-05-03T01:05:13.846Z,38.27
2023-05-03T01:08:06.713Z,38.32
2023-05-03T01:11:07.382Z,38.28
2023-05-03T01:13:33.805Z,38.44
2023-05-03T01:16:12.096Z,38.22
2023-05-03T01:18:40.616Z,38.30
2023-05-03T01:21:09.983Z,38.53
2023-05-03T01:23:43.254Z,38.22
2023-05-03T01:26:20.843Z,38.27
2023-05-03T01:28:47.648Z,38.47
2023-05-03T01:31:53.428Z,38.28
2023-05-03T01:34:28.827Z,38.54
2023-05-03T01:36:59.888Z,38.60
2023-05-03T01:39:42.009Z,38.27
2023-05-03T01:42:08.564Z,38.36
2023-05-03T01:44:36.550Z,38.40
2023-05-03T01:47:03.312Z,38.52
2023-05-03T01:49:29.810Z,38.49
2023-05-03T01:51:56.452Z,38.54
2023-05-03T01:54:22.997Z,38.61
2023-05-03T01:56:49.496Z,38.52
2023-05-03T01:59:16.035Z,38.47
2023-05-03T02:01:42.719Z,38.55
2023-05-03T02:04:09.584Z,38.34
2023-05-03T02:06:36.203Z,38.08
2023-05-03T02:09:03.199Z,38.35
2023-05-03T02:11:29.787Z,38.55
2023-05-03T02:13:56.329Z,38.53
2023-05-03T02:16:23.246Z,38.59
2023-05-03T02:18:51.841Z,38.41
2023-05-03T02:21:18.323Z,38.51
2023-05-03T02:23:44.849Z,38.70
2023-05-03T02:26:11.297Z,38.33
2023-05-03T02:28:38.468Z,38.52
2023-05-03T02:31:06.296Z,38.23
2023-05-03T02:33:33.048Z,38.43
2023-05-03T02:35:59.580Z,38.30
2023-05-03T02:38:27.291Z,38.39
2023-05-03T02:40:53.744Z,38.24
2023-05-03T02:43:20.297Z,38.37
2023-05-03T02:45:47.177Z,38.31
2023-05-03T02:48:13.778Z,38.28
2023-05-03T02:50:40.474Z,38.40
2023-05-03T02:53:07.043Z,38.53
2023-05-03T02:55:34.670Z,38.40
2023-05-03T02:58:01.779Z,38.45
2023-05-03T03:00:28.587Z,38.34
2023-05-03T03:02:55.258Z,38.29
2023-05-03T03:05:21.943Z,38.17
2023-05-03T03:07:50.446Z,38.59
2023-05-03T03:10:17.586Z,38.40
2023-05-03T03:12:44.353Z,38.40
2023-05-03T03:15:19.847Z,38.38
2023-05-03T03:17:46.596Z,38.29
2023-05-03T03:20:13.381Z,38.86
2023-05-03T03:22:47.178Z,38.30
2023-05-03T03:25:13.950Z,38.43
2023-05-03T03:27:40.800Z,38.71
2023-05-03T03:30:09.376Z,38.59
2023-05-03T03:32:42.987Z,38.36
2023-05-03T03:35:15.336Z,38.27
2023-05-03T03:37:41.894Z,38.34
2023-05-03T03:40:09.134Z,38.17
2023-05-03T03:42:37.078Z,38.45
2023-05-03T03:45:04.840Z,38.22
2023-05-03T03:47:31.392Z,38.29
2023-05-03T03:50:02.288Z,38.42
2023-05-03T03:52:30.856Z,38.31
2023-05-03T03:54:57.463Z,38.40
2023-05-03T03:57:26.067Z,38.48
2023-05-03T03:59:52.782Z,38.27
2023-05-03T04:02:19.357Z,38.32
2023-05-03T04:04:46.757Z,38.26
2023-05-03T04:07:15.353Z,38.45
2023-05-03T04:09:42.181Z,37.93
2023-05-03T04:12:08.929Z,38.49
2023-05-03T04:14:35.558Z,38.46
2023-05-03T04:17:02.148Z,38.23
2023-05-03T04:19:29.029Z,38.49
2023-05-03T04:21:55.649Z,38.08
2023-05-03T04:24:22.120Z,38.62
2023-05-03T04:26:51.436Z,38.54
2023-05-03T04:29:25.113Z,38.16
2023-05-03T04:31:52.109Z,38.37
2023-05-03T04:34:18.992Z,38.36
2023-05-03T04:36:49.004Z,38.47
2023-05-03T04:39:16.435Z,38.39
2023-05-03T04:41:45.594Z,38.21
2023-05-03T04:44:14.332Z,38.51
2023-05-03T04:46:43.282Z,38.27
2023-05-03T04:49:10.033Z,38.33
2023-05-03T04:51:36.847Z,38.27
2023-05-03T04:54:03.473Z,38.57
2023-05-03T04:56:30.136Z,38.47
2023-05-03T04:59:06.922Z,38.45
2023-05-03T05:01:33.727Z,38.28
2023-05-03T05:04:02.705Z,38.18
2023-05-03T05:06:37.657Z,38.17
2023-05-03T05:09:07.477Z,38.04
2023-05-03T05:11:34.593Z,38.11
2023-05-03T05:14:01.225Z,38.40
2023-05-03T05:16:27.803Z,38.18
2023-05-03T05:18:54.403Z,38.14
2023-05-03T05:21:24.454Z,38.16
2023-05-03T05:23:51.005Z,38.28
2023-05-03T05:26:17.676Z,38.36
2023-05-03T05:28:44.844Z,38.31
2023-05-03T05:31:11.622Z,38.52
2023-05-03T05:33:38.943Z,38.37
2023-05-03T05:36:06.202Z,38.39
2023-05-03T05:38:33.980Z,38.18
2023-05-03T05:41:01.139Z,38.22
2023-05-03T05:43:27.715Z,38.41
2023-05-03T05:45:55.584Z,38.12
2023-05-03T05:48:22.920Z,38.13
2023-05-03T05:50:49.540Z,38.04
2023-05-03T05:53:16.453Z,38.30
2023-05-03T05:55:55.971Z,38.07
2023-05-03T05:58:23.538Z,38.41
2023-05-03T06:00:55.533Z,37.87
2023-05-03T06:03:22.158Z,38.35
2023-05-03T06:05:50.660Z,38.27
2023-05-03T06:08:17.181Z,37.98
2023-05-03T06:10:43.783Z,38.12
2023-05-03T06:13:10.300Z,38.17
2023-05-03T06:15:36.972Z,38.21
2023-05-03T06:18:04.650Z,38.16
2023-05-03T06:20:31.466Z,37.82
2023-05-03T06:22:58.838Z,38.28
2023-05-03T06:25:26.143Z,38.16
2023-05-03T06:27:53.120Z,38.12
2023-05-03T06:30:25.942Z,38.24
2023-05-03T06:32:53.118Z,38.48
2023-05-03T06:35:21.758Z,38.09
2023-05-03T06:37:48.487Z,38.50
2023-05-03T06:40:15.972Z,38.16
2023-05-03T06:42:42.577Z,38.13
2023-05-03T06:45:12.884Z,38.06
2023-05-03T06:47:42.639Z,38.26
2023-05-03T06:50:10.726Z,38.16
2023-05-03T06:52:41.458Z,38.09
2023-05-03T06:55:08.517Z,38.28
2023-05-03T06:57:35.009Z,38.12
2023-05-03T07:00:01.717Z,38.06
2023-05-03T07:02:28.878Z,38.33
2023-05-03T07:04:55.689Z,38.27
2023-05-03T07:07:22.280Z,38.31
2023-05-03T07:09:49.608Z,38.45
2023-05-03T07:12:16.521Z,38.55
2023-05-03T07:14:43.383Z,38.34
2023-05-03T07:17:10.108Z,37.91
2023-05-03T07:19:37.338Z,38.15
2023-05-03T07:22:04.315Z,38.29
2023-05-03T07:24:30.852Z,38.29
2023-05-03T07:26:58.380Z,37.85
2023-05-03T07:29:24.957Z,38.21
2023-05-03T07:31:53.455Z,38.43
2023-05-03T07:34:20.536Z,38.43
2023-05-03T07:36:47.101Z,38.47
2023-05-03T07:39:13.657Z,38.17
2023-05-03T07:41:40.162Z,38.01
2023-05-03T07:44:07.606Z,38.22
2023-05-03T07:46:35.244Z,38.01
2023-05-03T07:49:04.090Z,38.24
2023-05-03T07:51:34.844Z,38.28
2023-05-03T07:54:01.565Z,38.36
2023-05-03T07:56:28.678Z,38.06
2023-05-03T07:59:07.393Z,38.00
2023-05-03T08:01:35.554Z,38.03
2023-05-03T08:04:02.177Z,38.16
2023-05-03T08:06:29.341Z,38.13
2023-05-03T08:08:56.167Z,38.04
2023-05-03T08:11:22.688Z,38.04
2023-05-03T08:13:49.234Z,38.34
2023-05-03T08:16:16.514Z,37.93
2023-05-03T08:18:43.236Z,38.44
2023-05-03T08:21:12.045Z,38.13
2023-05-03T08:23:38.659Z,38.37
2023-05-03T08:26:07.620Z,38.22
2023-05-03T08:28:34.308Z,38.60
2023-05-03T08:31:03.422Z,37.96
2023-05-03T08:33:30.061Z,38.23
2023-05-03T08:35:56.563Z,37.96
2023-05-03T08:38:23.006Z,38.42
2023-05-03T08:40:51.860Z,38.27
2023-05-03T08:43:21.637Z,38.12
2023-05-03T08:45:48.333Z,38.39
2023-05-03T08:48:15.179Z,38.12
2023-05-03T08:50:42.942Z,38.42
2023-05-03T08:53:10.613Z,38.25
2023-05-03T08:55:37.771Z,38.12
2023-05-03T08:58:10.711Z,37.98
2023-05-03T09:00:38.414Z,38.28
2023-05-03T09:03:05.102Z,38.01
2023-05-03T09:05:34.052Z,38.26
2023-05-03T09:08:02.570Z,38.05
2023-05-03T09:10:29.500Z,38.15
2023-05-03T09:13:01.054Z,37.97
2023-05-03T09:15:31.094Z,38.39
2023-05-03T09:18:15.525Z,37.97
2023-05-03T09:20:45.694Z,38.21
2023-05-03T09:23:12.602Z,38.15
2023-05-03T09:25:50.202Z,38.04
2023-05-03T09:28:17.860Z,38.23
2023-05-03T09:30:45.189Z,38.08
2023-05-03T09:33:12.263Z,38.16
2023-05-03T09:35:39.298Z,37.98
2023-05-03T09:38:06.246Z,38.28
2023-05-03T09:40:32.936Z,38.09
2023-05-03T09:43:14.433Z,38.04
2023-05-03T09:45:41.030Z,38.24
2023-05-03T09:48:08.687Z,38.16
2023-05-03T09:50:36.710Z,38.03
2023-05-03T09:53:05.321Z,38.05
2023-05-03T09:55:33.369Z,37.92
2023-05-03T09:58:00.913Z,38.08
2023-05-03T10:00:30.622Z,38.39
2023-05-03T10:03:00.986Z,38.36
2023-05-03T10:05:32.078Z,38.15
2023-05-03T10:08:01.305Z,38.27
2023-05-03T10:10:30.891Z,38.22
2023-05-03T10:12:59.362Z,38.21
2023-05-03T10:15:28.602Z,38.34
2023-05-03T10:17:57.897Z,38.10
2023-05-03T10:20:39.405Z,38.29
2023-05-03T10:23:11.824Z,38.53
2023-05-03T10:25:40.649Z,38.11
2023-05-03T10:28:08.876Z,38.03
2023-05-03T10:30:36.354Z,38.11
2023-05-03T10:33:12.102Z,38.05
2023-05-03T10:35:43.723Z,37.97
2023-05-03T10:38:17.712Z,37.98
2023-05-03T10:40:44.761Z,38.21
2023-05-03T10:43:29.795Z,38.02
2023-05-03T10:46:08.862Z,38.26
2023-05-03T10:48:35.591Z,38.03
2023-05-03T10:51:26.842Z,38.20
2023-05-03T10:53:53.445Z,38.08
2023-05-03T10:56:19.961Z,38.32
2023-05-03T10:58:49.998Z,38.08
2023-05-03T11:01:19.079Z,38.25
2023-05-03T11:03:50.041Z,38.15
2023-05-03T11:06:37.014Z,38.04
2023-05-03T11:09:08.826Z,38.22
2023-05-03T11:11:39.259Z,37.98
2023-05-03T11:14:06.891Z,38.33
2023-05-03T11:16:33.502Z,37.97
2023-05-03T11:19:01.879Z,38.00
2023-05-03T11:21:28.770Z,38.14
2023-05-03T11:23:55.428Z,38.02
2023-05-03T11:26:26.148Z,38.13
2023-05-03T11:28:54.144Z,37.84
2023-05-03T11:31:22.380Z,37.92
2023-05-03T11:33:49.857Z,38.21
2023-05-03T11:36:16.483Z,38.18
2023-05-03T11:38:42.939Z,38.11
2023-05-03T11:41:19.157Z,37.85
2023-05-03T11:43:49.441Z,37.94
2023-05-03T11:46:23.010Z,38.12
2023-05-03T11:48:49.863Z,38.12
2023-05-03T11:51:22.094Z,37.87
2023-05-03T11:53:48.683Z,37.89
2023-05-03T11:56:17.928Z,37.98
2023-05-03T11:58:58.431Z,37.79
2023-05-03T12:01:27.117Z,37.89
2023-05-03T12:04:02.445Z,37.92
2023-05-03T12:06:33.856Z,37.92
2023-05-03T12:09:03.490Z,38.00
2023-05-03T12:11:33.189Z,38.02
2023-05-03T12:14:03.185Z,37.68
2023-05-03T12:16:50.894Z,37.78
2023-05-03T12:19:32.157Z,38.06
2023-05-03T12:22:21.396Z,37.98
2023-05-03T12:25:00.501Z,38.06
2023-05-03T12:27:31.393Z,37.88
2023-05-03T12:30:01.376Z,38.22
2023-05-03T12:32:28.466Z,37.81
2023-05-03T12:35:00.463Z,37.78
2023-05-03T12:37:28.822Z,37.86
2023-05-03T12:40:15.264Z,37.96
2023-05-03T12:42:43.901Z,37.81
2023-05-03T12:45:13.159Z,37.81
2023-05-03T12:47:44.131Z,37.76
2023-05-03T12:50:12.622Z,37.99
2023-05-03T12:52:39.745Z,38.06
2023-05-03T12:55:11.228Z,37.63
2023-05-03T12:57:38.484Z,37.89
2023-05-03T13:00:13.573Z,38.04
2023-05-03T13:03:20.841Z,37.69
2023-05-03T13:05:34.978Z,38.06
2023-05-03T13:08:09.281Z,37.93
2023-05-03T13:10:37.596Z,37.75
2023-05-03T13:13:04.538Z,37.68
2023-05-03T13:15:31.187Z,38.26
2023-05-03T13:18:01.405Z,37.93
2023-05-03T13:20:28.958Z,37.86
2023-05-03T13:22:55.648Z,37.88
2023-05-03T13:25:22.183Z,37.66
2023-05-03T13:27:50.326Z,37.80
2023-05-03T13:30:16.897Z,37.97
2023-05-03T13:32:43.450Z,37.86
2023-05-03T13:35:10.277Z,37.76
2023-05-03T13:37:36.767Z,37.61
2023-05-03T13:40:03.635Z,37.78
2023-05-03T13:42:30.490Z,37.78
2023-05-03T13:44:56.923Z,37.72
2023-05-03T13:47:23.414Z,37.83
2023-05-03T13:49:49.950Z,37.77
2023-05-03T13:52:16.426Z,37.70
2023-05-03T13:54:42.997Z,37.89
2023-05-03T13:57:09.602Z,37.83
2023-05-03T13:59:36.161Z,37.90
2023-05-03T14:02:02.947Z,37.64
2023-05-03T14:04:30.760Z,37.53
2023-05-03T14:06:58.720Z,37.64
2023-05-03T14:09:25.268Z,37.76
2023-05-03T14:11:51.775Z,37.57
2023-05-03T14:14:18.256Z,37.88
2023-05-03T14:16:44.879Z,37.53
2023-05-03T14:19:11.958Z,37.81
2023-05-03T14:21:38.795Z,37.91
2023-05-03T14:24:06.503Z,37.74
2023-05-03T14:26:34.008Z,37.53
2023-05-03T14:29:01.025Z,37.69
2023-05-03T14:31:27.565Z,37.69
2023-05-03T14:33:55.060Z,37.84
2023-05-03T14:36:21.713Z,38.02
2023-05-03T14:38:48.303Z,37.70
2023-05-03T14:41:14.811Z,37.70
2023-05-03T14:43:41.322Z,37.53
2023-05-03T14:46:09.832Z,37.75
2023-05-03T14:48:38.166Z,37.69
2023-05-03T14:51:05.111Z,37.58
2023-05-03T14:53:31.770Z,37.76
2023-05-03T14:55:58.345Z,37.38
2023-05-03T14:58:25.104Z,37.66
2023-05-03T15:00:51.614Z,37.50
2023-05-03T15:03:18.448Z,37.85
2023-05-03T15:05:49.530Z,37.48
2023-05-03T15:08:19.265Z,37.54
2023-05-03T15:10:46.582Z,37.46
2023-05-03T15:13:14.520Z,37.59
2023-05-03T15:15:43.488Z,37.50
2023-05-03T15:18:11.024Z,37.43
2023-05-03T15:20:38.213Z,37.54
2023-05-03T15:23:05.161Z,37.79
2023-05-03T15:25:32.447Z,37.64
2023-05-03T15:28:01.755Z,37.63
2023-05-03T15:30:30.303Z,37.58
2023-05-03T15:32:56.852Z,37.28
2023-05-03T15:35:23.440Z,37.62
2023-05-03T15:37:49.950Z,37.73
2023-05-03T15:40:18.690Z,37.50
2023-05-03T15:42:45.223Z,37.65
2023-05-03T15:45:13.887Z,37.53
2023-05-03T15:47:40.858Z,37.33
2023-05-03T15:50:08.667Z,37.50
2023-05-03T15:52:35.688Z,37.31
2023-05-03T15:55:02.220Z,37.39
2023-05-03T15:57:30.194Z,37.31
2023-05-03T15:59:57.086Z,37.36
2023-05-03T16:02:23.781Z,37.46
2023-05-03T16:04:50.736Z,37.38
2023-05-03T16:07:17.958Z,37.17
2023-05-03T16:09:44.781Z,37.30
2023-05-03T16:12:11.300Z,37.05
2023-05-03T16:14:37.775Z,37.37
2023-05-03T16:17:04.313Z,36.82
2023-05-03T16:19:31.883Z,37.25
2023-05-03T16:21:58.795Z,37.18
2023-05-03T16:24:25.406Z,37.16
2023-05-03T16:26:52.808Z,37.23
2023-05-03T16:29:19.605Z,37.17
2023-05-03T16:31:47.354Z,36.97
2023-05-03T16:34:14.227Z,37.11
2023-05-03T16:36:43.029Z,36.84
2023-05-03T16:39:14.050Z,37.17
2023-05-03T16:41:41.486Z,36.97
2023-05-03T16:44:09.155Z,37.42
2023-05-03T16:46:37.245Z,37.23
2023-05-03T16:49:07.210Z,37.14
2023-05-03T16:51:33.890Z,37.28
2023-05-03T16:54:02.917Z,36.80
2023-05-03T16:56:30.894Z,36.97
2023-05-03T16:58:57.552Z,37.03
2023-05-03T17:01:24.105Z,36.84
2023-05-03T17:03:50.663Z,36.51
2023-05-03T17:06:18.289Z,36.65
2023-05-03T17:08:45.364Z,36.87
2023-05-03T17:11:14.134Z,36.93
2023-05-03T17:13:41.460Z,37.02
2023-05-03T17:16:10.515Z,36.70
2023-05-03T17:18:38.857Z,36.75
2023-05-03T17:21:05.760Z,36.70
2023-05-03T17:23:39.287Z,36.29
2023-05-03T17:26:10.271Z,36.33
2023-05-03T17:28:37.332Z,36.31
2023-05-03T17:31:04.328Z,35.88
2023-05-03T17:33:30.880Z,35.69
2023-05-03T17:35:57.826Z,35.99
2023-05-03T17:38:24.800Z,35.95
2023-05-03T17:40:51.331Z,36.02
2023-05-03T17:43:18.204Z,35.98
2023-05-03T17:45:47.388Z,35.85
2023-05-03T17:48:14.526Z,36.02
2023-05-03T17:50:41.873Z,36.15
2023-05-03T17:53:09.403Z,36.15
2023-05-03T17:55:37.981Z,36.10
2023-05-03T17:58:06.192Z,36.29
2023-05-03T18:00:33.093Z,35.96
2023-05-03T18:02:59.678Z,36.24
2023-05-03T18:05:26.689Z,36.30
2023-05-03T18:07:53.331Z,36.22
2023-05-03T18:10:19.966Z,36.34
2023-05-03T18:12:46.562Z,36.58
2023-05-03T18:15:15.286Z,36.26
2023-05-03T18:17:42.701Z,36.24
2023-05-03T18:20:10.138Z,36.40
2023-05-03T18:22:37.387Z,36.63
2023-05-03T18:25:07.776Z,36.52
2023-05-03T18:27:37.378Z,36.37
2023-05-03T18:30:06.760Z,36.53
2023-05-03T18:32:33.971Z,36.43
2023-05-03T18:35:00.777Z,36.38
2023-05-03T18:37:27.560Z,36.42
2023-05-03T18:39:54.130Z,36.69
2023-05-03T18:42:21.361Z,36.35
2023-05-03T18:44:48.321Z,36.42
2023-05-03T18:47:16.777Z,36.63
2023-05-03T18:49:46.921Z,36.47
2023-05-03T18:52:13.568Z,36.67
2023-05-03T18:54:42.688Z,36.68
2023-05-03T18:57:09.470Z,36.71
2023-05-03T18:59:42.763Z,36.77
2023-05-03T19:02:15.666Z,36.66
2023-05-03T19:04:42.928Z,36.42
2023-05-03T19:07:10.455Z,36.71
2023-05-03T19:09:40.405Z,36.67
2023-05-03T19:12:08.475Z,36.50
2023-05-03T19:14:40.996Z,36.67
2023-05-03T19:17:08.506Z,36.74
2023-05-03T19:19:35.237Z,36.98
2023-05-03T19:22:01.808Z,36.91
2023-05-03T19:24:28.640Z,36.68
2023-05-03T19:26:55.212Z,36.82
2023-05-03T19:29:21.842Z,36.88
2023-05-03T19:31:48.555Z,36.65
2023-05-03T19:34:15.037Z,36.88
2023-05-03T19:36:41.814Z,36.99
2023-05-03T19:39:11.360Z,37.06
2023-05-03T19:41:38.761Z,36.96
2023-05-03T19:44:06.184Z,36.89
2023-05-03T19:46:33.841Z,37.00
2023-05-03T19:49:00.640Z,37.02
2023-05-03T19:51:27.955Z,36.76
2023-05-03T19:53:54.454Z,36.95
2023-05-03T19:56:21.923Z,37.09
2023-05-03T19:58:48.442Z,36.67
2023-05-03T20:01:15.008Z,36.93
2023-05-03T20:03:42.446Z,36.50
2023-05-03T20:06:09.065Z,36.80
2023-05-03T20:08:36.143Z,36.69
2023-05-03T20:11:03.200Z,37.05
2023-05-03T20:13:30.259Z,37.20
2023-05-03T20:15:56.974Z,37.49
2023-05-03T20:18:23.624Z,36.96
2023-05-03T20:20:50.324Z,37.18
2023-05-03T20:23:17.223Z,37.33
2023-05-03T20:25:43.780Z,37.22
2023-05-03T20:28:10.433Z,37.05
2023-05-03T20:30:37.120Z,36.91
2023-05-03T20:33:04.597Z,37.09
2023-05-03T20:35:31.395Z,37.12
2023-05-03T20:37:58.011Z,36.97
2023-05-03T20:40:24.539Z,37.07
2023-05-03T20:42:51.135Z,37.21
2023-05-03T20:45:17.824Z,37.19
2023-05-03T20:47:44.413Z,37.31
2023-05-03T20:50:11.766Z,36.93
2023-05-03T20:52:38.334Z,37.20
2023-05-03T20:55:05.295Z,37.23
2023-05-03T20:57:31.872Z,37.33
2023-05-03T20:59:59.857Z,37.22
2023-05-03T21:02:26.400Z,37.14
2023-05-03T21:04:53.038Z,37.16
2023-05-03T21:07:19.486Z,37.12
2023-05-03T21:09:45.982Z,37.22
2023-05-03T21:12:12.630Z,37.09
2023-05-03T21:14:39.148Z,37.25
2023-05-03T21:17:08.481Z,37.16
2023-05-03T21:19:34.961Z,37.34
2023-05-03T21:22:01.466Z,37.17
2023-05-03T21:24:29.128Z,37.10
2023-05-03T21:26:55.603Z,37.05
2023-05-03T21:29:22.064Z,37.13
2023-05-03T21:31:48.561Z,37.06
2023-05-03T21:34:15.164Z,36.92
2023-05-03T21:36:41.698Z,37.36
2023-05-03T21:39:08.571Z,37.18
2023-05-03T21:41:35.087Z,37.26
2023-05-03T21:44:02.242Z,37.13
2023-05-03T21:46:28.717Z,37.30
2023-05-03T21:48:55.505Z,37.47
2023-05-03T21:51:23.124Z,37.22
2023-05-03T21:53:49.885Z,37.34
2023-05-03T21:56:16.568Z,37.17
2023-05-03T21:58:46.281Z,37.24
2023-05-03T22:01:17.422Z,37.23
2023-05-03T22:03:44.232Z,37.44
2023-05-03T22:06:10.866Z,37.51
2023-05-03T22:08:37.684Z,37.43
2023-05-03T22:11:06.876Z,37.23
2023-05-03T22:13:34.501Z,37.39
2023-05-03T22:16:07.947Z,37.24
2023-05-03T22:18:35.071Z,37.15
2023-05-03T22:21:02.689Z,37.16
2023-05-03T22:23:29.370Z,37.34
2023-05-03T22:25:55.977Z,37.32
2023-05-03T22:28:22.636Z,37.22
2023-05-03T22:30:49.114Z,37.45
2023-05-03T22:33:15.622Z,37.26
2023-05-03T22:35:42.206Z,37.13
2023-05-03T22:38:08.747Z,37.09
2023-05-03T22:40:35.426Z,37.52
2023-05-03T22:43:01.948Z,37.39
2023-05-03T22:45:28.807Z,37.10
2023-05-03T22:47:55.606Z,37.54
2023-05-03T22:50:22.693Z,37.23
2023-05-03T22:52:49.468Z,37.29
2023-05-03T22:55:16.031Z,37.16
2023-05-03T22:57:42.497Z,36.86
2023-05-03T23:00:10.359Z,37.24
2023-05-03T23:02:36.997Z,37.26
2023-05-03T23:05:03.685Z,37.31
2023-05-03T23:07:30.250Z,37.23
2023-05-03T23:10:05.216Z,37.23
2023-05-03T23:12:32.315Z,36.96
2023-05-03T23:14:58.857Z,37.04
2023-05-03T23:17:25.551Z,37.14
2023-05-03T23:19:52.077Z,37.25
2023-05-03T23:22:18.628Z,37.20
2023-05-03T23:24:45.053Z,37.33
2023-05-03T23:27:13.032Z,37.37
2023-05-03T23:29:39.993Z,37.43
2023-05-03T23:32:07.146Z,37.29
2023-05-03T23:34:34.009Z,37.21
2023-05-03T23:37:00.633Z,37.04
2023-05-03T23:39:27.664Z,37.42
2023-05-03T23:41:54.221Z,37.26
2023-05-03T23:44:21.364Z,37.32
2023-05-03T23:46:47.831Z,37.05
2023-05-03T23:49:14.359Z,37.11
2023-05-03T23:51:40.873Z,36.81
2023-05-03T23:54:07.390Z,37.33
2023-05-03T23:56:33.873Z,37.46
2023-05-03T23:59:01.684Z,37.20
